Time;durP1;ratioP1;P1;durP2;ratioP2;P2;SDS_P1;SDS_P2;PMS_P1;PMS_P2;Temp;Humidity;BMP_temperature;BMP_pressure;BME280_temperature;BME280_humidity;BME280_pressure;Samples;Min_cycle;Max_cycle;Signal;HPM_P1;HPM_P2
2023/11/01 00:02:23;;;;;;;1.63;1.10;;;;;;;10.11;100.00;97623.69;5072912;28;20234;-81
2023/11/01 00:04:49;;;;;;;1.17;1.07;;;;;;;10.10;100.00;97624.66;5072586;28;20695;-81
2023/11/01 00:07:16;;;;;;;1.23;0.87;;;;;;;10.14;100.00;97616.38;5072862;28;20345;-81
2023/11/01 00:09:42;;;;;;;1.80;1.33;;;;;;;10.21;100.00;97616.75;5072886;28;20205;-81
2023/11/01 00:12:09;;;;;;;1.50;1.10;;;;;;;10.25;100.00;97623.47;5072683;28;20227;-81
2023/11/01 00:14:35;;;;;;;1.70;1.00;;;;;;;10.30;100.00;97621.34;5072306;28;20217;-81
2023/11/01 00:17:02;;;;;;;1.30;0.97;;;;;;;10.29;100.00;97614.38;5073131;28;20212;-81
2023/11/01 00:19:30;;;;;;;1.30;1.20;;;;;;;10.31;100.00;97613.31;5072655;28;20562;-82
2023/11/01 00:21:56;;;;;;;2.63;1.30;;;;;;;10.34;100.00;97613.06;5072523;28;20251;-81
2023/11/01 00:24:23;;;;;;;2.57;1.13;;;;;;;10.32;100.00;97609.69;5072035;28;20228;-81
2023/11/01 00:26:49;;;;;;;1.70;0.90;;;;;;;10.30;100.00;97611.63;5072513;28;20223;-81
2023/11/01 00:29:16;;;;;;;1.83;1.10;;;;;;;10.28;100.00;97610.88;5073102;28;20203;-81
2023/11/01 00:31:42;;;;;;;1.40;1.10;;;;;;;10.31;100.00;97608.03;5072355;28;20610;-81
2023/11/01 00:34:09;;;;;;;2.17;1.23;;;;;;;10.30;100.00;97608.13;5071953;28;20213;-81
2023/11/01 00:36:36;;;;;;;1.70;1.10;;;;;;;10.28;100.00;97595.03;5072613;28;20212;-81
2023/11/01 00:39:03;;;;;;;2.57;1.03;;;;;;;10.27;100.00;97596.00;5072230;28;20214;-81
2023/11/01 00:41:30;;;;;;;3.50;1.10;;;;;;;10.24;100.00;97600.66;5072552;28;20283;-81
2023/11/01 00:43:56;;;;;;;2.50;1.10;;;;;;;10.23;100.00;97597.22;5071887;28;20205;-81
2023/11/01 00:46:23;;;;;;;0.93;0.90;;;;;;;10.28;100.00;97591.56;5072242;28;20232;-81
2023/11/01 00:48:49;;;;;;;2.60;1.00;;;;;;;10.33;100.00;97594.72;5072139;28;20207;-81
2023/11/01 00:51:16;;;;;;;1.10;0.87;;;;;;;10.37;100.00;97590.84;5071953;28;20229;-81
2023/11/01 00:53:44;;;;;;;1.30;1.00;;;;;;;10.33;100.00;97592.88;5071727;28;20215;-81
2023/11/01 00:56:11;;;;;;;2.67;1.33;;;;;;;10.39;100.00;97588.94;5072087;28;20211;-81
2023/11/01 00:58:38;;;;;;;2.00;1.20;;;;;;;10.34;100.00;97576.06;5071838;28;20299;-81
2023/11/01 01:01:05;;;;;;;2.13;1.00;;;;;;;10.32;100.00;97578.00;5072016;28;20227;-81
2023/11/01 01:03:31;;;;;;;1.33;0.90;;;;;;;10.32;100.00;97585.06;5071763;28;20212;-81
2023/11/01 01:05:57;;;;;;;1.87;1.00;;;;;;;10.26;100.00;97577.63;5072143;28;20235;-81
2023/11/01 01:08:24;;;;;;;7.50;1.47;;;;;;;10.24;100.00;97574.25;5072511;28;20208;-81
2023/11/01 01:10:52;;;;;;;2.23;1.03;;;;;;;10.25;100.00;97578.56;5071864;28;20213;-81
2023/11/01 01:13:18;;;;;;;2.03;1.10;;;;;;;10.29;100.00;97577.41;5071673;28;20209;-81
2023/11/01 01:15:45;;;;;;;1.73;1.33;;;;;;;10.27;100.00;97576.69;5071935;28;20222;-81
2023/11/01 01:18:14;;;;;;;2.10;1.00;;;;;;;10.32;100.00;97574.50;5072052;28;20204;-81
2023/11/01 01:20:40;;;;;;;1.90;0.90;;;;;;;10.29;100.00;97578.22;5071700;28;20679;-81
2023/11/01 01:23:08;;;;;;;1.10;0.90;;;;;;;10.31;100.00;97575.47;5071776;28;20207;-81
2023/11/01 01:25:34;;;;;;;1.97;1.00;;;;;;;10.31;100.00;97575.47;5075747;28;20227;-81
2023/11/01 01:28:02;;;;;;;2.57;1.10;;;;;;;10.35;100.00;97571.66;5085554;28;20208;-82
2023/11/01 01:30:29;;;;;;;3.13;1.23;;;;;;;10.38;100.00;97560.81;5080247;28;20701;-81
2023/11/01 01:32:55;;;;;;;1.77;1.07;;;;;;;10.37;100.00;97564.44;5078249;28;20240;-81
2023/11/01 01:35:23;;;;;;;1.13;0.73;;;;;;;10.37;100.00;97561.78;5076313;28;20558;-81
2023/11/01 01:37:49;;;;;;;1.27;1.00;;;;;;;10.33;100.00;97553.25;5076401;28;20212;-81
2023/11/01 01:40:16;;;;;;;2.00;1.10;;;;;;;10.34;100.00;97557.59;5076216;28;20216;-81
2023/11/01 01:42:42;;;;;;;1.57;1.10;;;;;;;10.38;100.00;97552.91;5075830;28;20231;-81
2023/11/01 01:45:11;;;;;;;1.97;1.20;;;;;;;10.39;100.00;97554.63;5076114;28;20231;-81
2023/11/01 01:47:38;;;;;;;2.60;1.10;;;;;;;10.38;100.00;97544.97;5076144;28;20216;-81
2023/11/01 01:50:07;;;;;;;1.37;1.00;;;;;;;10.38;100.00;97542.34;5076063;28;20211;-81
2023/11/01 01:52:34;;;;;;;3.17;1.20;;;;;;;10.41;100.00;97544.75;5075576;28;20739;-81
2023/11/01 01:55:01;;;;;;;1.97;0.97;;;;;;;10.42;100.00;97535.88;5075887;28;20211;-81
2023/11/01 01:57:29;;;;;;;1.83;1.03;;;;;;;10.46;100.00;97524.13;5075729;28;20676;-81
2023/11/01 01:59:58;;;;;;;1.40;1.10;;;;;;;10.41;100.00;97523.63;5075319;28;20700;-81
2023/11/01 02:02:26;;;;;;;1.10;1.00;;;;;;;10.40;100.00;97521.94;5075070;28;20249;-81
2023/11/01 02:04:53;;;;;;;1.40;0.90;;;;;;;10.36;100.00;97517.84;5075065;28;20688;-81
2023/11/01 02:07:20;;;;;;;1.70;1.07;;;;;;;10.33;100.00;97520.75;5075736;28;20667;-81
2023/11/01 02:09:46;;;;;;;2.07;0.87;;;;;;;10.32;100.00;97530.47;5075210;28;20208;-81
2023/11/01 02:12:13;;;;;;;2.43;1.03;;;;;;;10.29;100.00;97528.03;5075077;28;20238;-81
2023/11/01 02:14:40;;;;;;;2.50;1.23;;;;;;;10.26;100.00;97535.38;5074794;28;20280;-81
2023/11/01 02:17:06;;;;;;;2.00;1.13;;;;;;;10.22;100.00;97533.94;5075429;28;20210;-81
2023/11/01 02:19:35;;;;;;;1.60;1.20;;;;;;;10.16;100.00;97529.13;5075025;28;20756;-81
2023/11/01 02:22:01;;;;;;;1.07;0.80;;;;;;;10.15;100.00;97524.81;5075430;28;20227;-82
2023/11/01 02:24:30;;;;;;;2.40;0.90;;;;;;;10.14;100.00;97526.59;5074855;28;20605;-81
2023/11/01 02:26:56;;;;;;;2.33;1.00;;;;;;;10.11;100.00;97523.34;5074596;28;20746;-81
2023/11/01 02:29:23;;;;;;;1.07;0.97;;;;;;;10.08;100.00;97520.94;5074267;28;20196;-82
2023/11/01 02:31:51;;;;;;;1.97;1.10;;;;;;;10.06;100.00;97521.06;5074809;28;20324;-81
2023/11/01 02:34:17;;;;;;;1.40;0.90;;;;;;;10.05;100.00;97515.91;5074286;28;20645;-81
2023/11/01 02:36:44;;;;;;;2.67;1.00;;;;;;;10.08;100.00;97513.00;5075081;28;20289;-81
2023/11/01 02:39:11;;;;;;;1.03;0.90;;;;;;;10.07;100.00;97508.69;5074623;28;20606;-81
2023/11/01 02:41:39;;;;;;;1.33;0.90;;;;;;;10.05;100.00;97505.34;5074524;28;20233;-81
2023/11/01 02:44:07;;;;;;;1.33;1.00;;;;;;;10.11;100.00;97500.44;5074279;28;20212;-81
2023/11/01 02:46:33;;;;;;;1.93;1.03;;;;;;;10.08;100.00;97505.94;5074533;28;20223;-81
2023/11/01 02:49:00;;;;;;;2.10;1.07;;;;;;;10.10;100.00;97498.75;5074885;28;20211;-81
2023/11/01 02:51:26;;;;;;;1.37;0.90;;;;;;;10.09;100.00;97496.25;5074492;28;20236;-81
2023/11/01 02:53:53;;;;;;;1.93;1.07;;;;;;;10.08;100.00;97505.09;5074235;28;20214;-81
2023/11/01 02:56:21;;;;;;;2.57;1.30;;;;;;;10.07;100.00;97492.84;5074287;28;20218;-81
2023/11/01 02:58:49;;;;;;;2.07;1.00;;;;;;;10.05;100.00;97494.78;5074934;28;20663;-82
2023/11/01 03:01:17;;;;;;;1.93;0.97;;;;;;;10.04;100.00;97493.09;5075650;28;20235;-81
2023/11/01 03:03:43;;;;;;;2.10;1.17;;;;;;;10.10;100.00;97488.19;5074861;28;20211;-83
2023/11/01 03:06:10;;;;;;;2.97;1.10;;;;;;;10.07;100.00;97492.84;5074904;28;20240;-81
2023/11/01 03:08:36;;;;;;;1.80;1.17;;;;;;;10.05;100.00;97495.63;5075509;28;20203;-80
2023/11/01 03:11:04;;;;;;;2.63;0.90;;;;;;;10.05;100.00;97493.00;5074249;28;20236;-80
2023/11/01 03:13:30;;;;;;;1.67;1.20;;;;;;;10.04;100.00;97493.09;5074337;28;20213;-80
2023/11/01 03:15:58;;;;;;;1.90;1.10;;;;;;;10.09;100.00;97490.97;5074168;28;20215;-81
2023/11/01 03:18:25;;;;;;;2.60;0.80;;;;;;;10.11;100.00;97479.31;5074481;28;20217;-81
2023/11/01 03:20:52;;;;;;;2.67;1.00;;;;;;;10.05;100.00;97481.59;5073665;28;20264;-81
2023/11/01 03:23:19;;;;;;;2.20;0.83;;;;;;;10.03;100.00;97473.78;5073784;28;20219;-81
2023/11/01 03:25:45;;;;;;;0.93;0.80;;;;;;;9.98;100.00;97472.44;5073909;28;20237;-81
2023/11/01 03:28:12;;;;;;;1.00;0.90;;;;;;;9.99;100.00;97479.38;5074020;28;20208;-81
2023/11/01 03:30:38;;;;;;;1.60;0.90;;;;;;;9.94;100.00;97481.53;5074020;28;20550;-80
2023/11/01 03:33:06;;;;;;;2.17;1.10;;;;;;;9.94;100.00;97479.75;5073717;28;20219;-81
2023/11/01 03:35:32;;;;;;;2.57;1.20;;;;;;;9.91;100.00;97477.31;5073701;28;20706;-81
2023/11/01 03:37:59;;;;;;;2.30;0.90;;;;;;;9.88;100.00;97482.84;5073968;28;20283;-81
2023/11/01 03:40:26;;;;;;;2.03;1.20;;;;;;;9.90;100.00;97482.75;5073817;28;20212;-81
2023/11/01 03:42:53;;;;;;;1.60;0.90;;;;;;;9.82;100.00;97482.47;5073283;28;20225;-81
2023/11/01 03:45:19;;;;;;;2.67;0.97;;;;;;;9.80;100.00;97481.75;5074834;28;20204;-80
2023/11/01 03:47:46;;;;;;;3.67;1.07;;;;;;;9.79;100.00;97478.25;5075677;28;20215;-81
2023/11/01 03:50:14;;;;;;;2.70;1.00;;;;;;;9.73;100.00;97477.91;5076747;28;20299;-81
2023/11/01 03:52:41;;;;;;;1.90;0.77;;;;;;;9.72;100.00;97481.50;5076721;28;20238;-81
2023/11/01 03:55:11;;;;;;;1.70;1.27;;;;;;;9.72;100.00;97481.50;5077180;28;20220;-81
2023/11/01 03:57:38;;;;;;;1.10;0.80;;;;;;;9.70;100.00;97473.69;5077187;28;20245;-81
2023/11/01 04:00:05;;;;;;;2.03;1.13;;;;;;;9.69;100.00;97466.75;5076766;28;20209;-81
2023/11/01 04:02:31;;;;;;;1.63;1.10;;;;;;;9.70;100.00;97470.22;5075701;28;20230;-81
2023/11/01 04:04:58;;;;;;;1.10;1.00;;;;;;;9.68;100.00;97466.84;5074661;28;20204;-80
2023/11/01 04:07:26;;;;;;;2.73;1.20;;;;;;;9.66;100.00;97464.31;5086660;28;20245;-81
2023/11/01 04:09:52;;;;;;;1.27;1.00;;;;;;;9.64;100.00;97455.69;5085412;28;20213;-81
2023/11/01 04:12:19;;;;;;;1.63;1.00;;;;;;;9.66;100.00;97452.94;5082201;28;20234;-81
2023/11/01 04:14:46;;;;;;;1.43;0.90;;;;;;;9.69;100.00;97452.69;5076788;28;20224;-81
2023/11/01 04:17:12;;;;;;;1.47;0.80;;;;;;;9.66;100.00;97456.41;5073332;28;20208;-81
2023/11/01 04:19:39;;;;;;;2.30;1.07;;;;;;;9.67;100.00;97449.34;5073464;28;20687;-81
2023/11/01 04:22:05;;;;;;;3.33;1.00;;;;;;;9.70;100.00;97446.47;5073481;28;20745;-81
2023/11/01 04:24:33;;;;;;;1.57;0.70;;;;;;;9.71;100.00;97442.88;5073209;28;20213;-80
2023/11/01 04:27:00;;;;;;;2.30;0.90;;;;;;;9.66;100.00;97445.84;5072658;28;20229;-81
2023/11/01 04:29:27;;;;;;;1.93;1.00;;;;;;;9.62;100.00;97454.13;5072713;28;20306;-80
2023/11/01 04:31:53;;;;;;;1.63;0.90;;;;;;;9.60;100.00;97446.31;5072797;28;20256;-80
2023/11/01 04:34:20;;;;;;;1.23;0.80;;;;;;;9.55;100.00;97448.47;5072720;28;20207;-81
2023/11/01 04:36:46;;;;;;;1.93;0.90;;;;;;;9.56;100.00;97438.78;5071667;28;20207;-81
2023/11/01 04:39:13;;;;;;;1.30;0.90;;;;;;;9.50;100.00;97440.09;5072795;28;20211;-80
2023/11/01 04:41:41;;;;;;;1.10;1.00;;;;;;;9.46;100.00;97433.34;5072555;28;20581;-81
2023/11/01 04:44:08;;;;;;;1.33;1.00;;;;;;;9.38;100.00;97429.59;5072582;28;20211;-80
2023/11/01 04:46:34;;;;;;;1.40;0.90;;;;;;;9.28;100.00;97426.81;5072904;28;20732;-82
2023/11/01 04:49:01;;;;;;;2.13;0.80;;;;;;;9.22;100.00;97427.28;5072666;28;20587;-80
2023/11/01 04:51:27;;;;;;;1.30;0.97;;;;;;;9.12;100.00;97422.81;5072416;28;20233;-81
2023/11/01 04:53:54;;;;;;;3.40;0.90;;;;;;;9.08;100.00;97426.63;5072028;28;20211;-80
2023/11/01 04:56:20;;;;;;;1.83;0.77;;;;;;;9.08;100.00;97424.00;5072809;28;20204;-81
2023/11/01 04:58:48;;;;;;;1.03;0.80;;;;;;;9.00;100.00;97418.47;5072155;28;20207;-82
2023/11/01 05:01:14;;;;;;;2.27;1.00;;;;;;;8.94;100.00;97416.28;5072438;28;20237;-82
2023/11/01 05:03:41;;;;;;;1.73;1.03;;;;;;;8.87;100.00;97417.69;5072130;28;20668;-82
2023/11/01 05:06:08;;;;;;;1.60;0.90;;;;;;;8.83;100.00;97410.94;5071914;28;20734;-82
2023/11/01 05:08:35;;;;;;;3.13;1.03;;;;;;;8.78;100.00;97405.16;5072482;28;20214;-81
2023/11/01 05:11:02;;;;;;;2.00;1.20;;;;;;;8.69;100.00;97413.75;5072462;28;20228;-83
2023/11/01 05:13:27;;;;;;;1.10;0.90;;;;;;;8.64;100.00;97416.72;5072078;28;20214;-80
2023/11/01 05:15:55;;;;;;;2.70;1.00;;;;;;;8.57;100.00;97417.28;5072388;28;20220;-81
2023/11/01 05:18:24;;;;;;;1.93;1.20;;;;;;;8.50;100.00;97418.69;5072177;28;20241;-81
2023/11/01 05:20:50;;;;;;;2.23;1.33;;;;;;;8.45;100.00;97415.53;5072249;28;20238;-81
2023/11/01 05:23:18;;;;;;;1.77;1.10;;;;;;;8.44;100.00;97416.50;5071702;28;20216;-83
2023/11/01 05:25:45;;;;;;;3.43;1.30;;;;;;;8.42;100.00;97410.47;5072135;28;20205;-81
2023/11/01 05:28:11;;;;;;;2.10;1.30;;;;;;;8.40;100.00;97402.69;5071884;28;20219;-80
2023/11/01 05:30:38;;;;;;;2.33;1.40;;;;;;;8.37;100.00;97396.78;5072190;28;20683;-81
2023/11/01 05:33:06;;;;;;;1.47;1.30;;;;;;;8.37;100.00;97407.31;5072408;28;20208;-81
2023/11/01 05:35:36;;;;;;;1.37;1.00;;;;;;;8.37;100.00;97412.59;5072523;28;20218;-81
2023/11/01 05:38:02;;;;;;;2.17;1.30;;;;;;;8.38;100.00;97414.31;5072595;28;20216;-81
2023/11/01 05:40:29;;;;;;;2.77;1.20;;;;;;;8.35;100.00;97409.25;5073680;28;20203;-81
2023/11/01 05:42:56;;;;;;;1.30;1.00;;;;;;;8.35;100.00;97406.59;5073202;28;20235;-80
2023/11/01 05:45:23;;;;;;;2.60;1.20;;;;;;;8.32;100.00;97405.03;5072913;28;20245;-81
2023/11/01 05:47:50;;;;;;;2.13;1.20;;;;;;;8.30;100.00;97400.81;5073810;28;20233;-81
2023/11/01 05:50:19;;;;;;;2.63;1.30;;;;;;;8.27;100.00;97406.31;5073851;28;20230;-80
2023/11/01 05:52:46;;;;;;;2.47;1.27;;;;;;;8.26;100.00;97399.38;5073511;28;20233;-80
2023/11/01 05:55:12;;;;;;;2.30;1.30;;;;;;;8.22;100.00;97397.91;5074368;28;20225;-80
2023/11/01 05:57:39;;;;;;;2.80;1.33;;;;;;;8.20;100.00;97390.13;5073770;28;20315;-80
2023/11/01 06:00:09;;;;;;;1.57;1.10;;;;;;;8.20;100.00;97399.81;5072384;28;20213;-81
2023/11/01 06:02:37;;;;;;;1.80;1.40;;;;;;;8.08;100.00;97400.66;5069961;28;20237;-80
2023/11/01 06:05:05;;;;;;;1.40;1.10;;;;;;;8.01;100.00;97402.00;5071831;28;20686;-80
2023/11/01 06:07:33;;;;;;;1.73;1.10;;;;;;;7.87;100.00;97403.00;5071498;28;20236;-80
2023/11/01 06:09:59;;;;;;;1.83;1.20;;;;;;;7.83;100.00;97398.06;5073547;28;20674;-81
2023/11/01 06:12:26;;;;;;;3.13;1.40;;;;;;;7.81;100.00;97407.84;5075206;28;20227;-81
2023/11/01 06:14:55;;;;;;;3.30;1.47;;;;;;;7.78;100.00;97392.28;5074664;28;20304;-80
2023/11/01 06:17:22;;;;;;;3.43;1.50;;;;;;;7.78;100.00;97397.53;5074513;28;20201;-80
2023/11/01 06:19:49;;;;;;;2.33;1.20;;;;;;;7.81;100.00;97394.69;5074126;28;20673;-81
2023/11/01 06:22:17;;;;;;;1.80;1.43;;;;;;;7.80;100.00;97400.91;5073854;28;20229;-81
2023/11/01 06:24:45;;;;;;;2.03;1.10;;;;;;;7.86;100.00;97396.06;5073629;28;20585;-81
2023/11/01 06:27:14;;;;;;;1.57;1.10;;;;;;;7.88;100.00;97394.16;5073695;28;20229;-81
2023/11/01 06:29:42;;;;;;;3.07;1.13;;;;;;;7.93;100.00;97385.94;5074388;28;20205;-80
2023/11/01 06:32:09;;;;;;;3.17;1.40;;;;;;;7.94;100.00;97374.44;5073608;28;20247;-81
2023/11/01 06:34:35;;;;;;;1.90;1.60;;;;;;;7.97;100.00;97382.16;5073544;28;20216;-81
2023/11/01 06:37:02;;;;;;;2.10;1.20;;;;;;;7.99;100.00;97386.34;5074349;28;20208;-80
2023/11/01 06:39:28;;;;;;;3.93;1.50;;;;;;;8.06;100.00;97381.47;5073766;28;20213;-80
2023/11/01 06:41:56;;;;;;;2.20;1.37;;;;;;;8.13;100.00;97382.72;5073661;28;20239;-80
2023/11/01 06:44:22;;;;;;;1.80;1.20;;;;;;;8.18;100.00;97396.41;5073341;28;20213;-81
2023/11/01 06:46:49;;;;;;;3.43;1.47;;;;;;;8.19;100.00;97383.19;5073870;28;20246;-81
2023/11/01 06:49:16;;;;;;;2.10;1.10;;;;;;;8.22;100.00;97387.38;5073844;28;20217;-80
2023/11/01 06:51:42;;;;;;;1.27;1.17;;;;;;;8.25;100.00;97389.78;5074187;28;20225;-83
2023/11/01 06:54:09;;;;;;;2.80;1.30;;;;;;;8.28;100.00;97392.22;5074290;28;20205;-81
2023/11/01 06:56:35;;;;;;;1.43;1.27;;;;;;;8.33;100.00;97400.63;5074066;28;20209;-80
2023/11/01 06:59:03;;;;;;;1.63;1.30;;;;;;;8.34;100.00;97397.03;5074726;28;20681;-81
2023/11/01 07:01:30;;;;;;;1.93;1.30;;;;;;;8.40;100.00;97399.22;5074210;28;20233;-81
2023/11/01 07:03:56;;;;;;;2.67;1.47;;;;;;;8.42;100.00;97399.94;5073348;28;20219;-83
2023/11/01 07:06:22;;;;;;;2.40;1.43;;;;;;;8.41;100.00;97398.28;5074040;28;20212;-82
2023/11/01 07:08:49;;;;;;;2.80;1.10;;;;;;;8.46;100.00;97406.69;5073643;28;20207;-82
2023/11/01 07:11:18;;;;;;;1.97;1.10;;;;;;;8.43;100.00;97397.22;5073407;28;20231;-82
2023/11/01 07:13:45;;;;;;;2.97;1.60;;;;;;;8.45;100.00;97405.00;5073390;28;20245;-82
2023/11/01 07:16:13;;;;;;;1.67;1.10;;;;;;;8.46;100.00;97399.59;5032174;28;1226728;-82
2023/11/01 07:18:40;;;;;;;2.73;1.53;;;;;;;8.50;100.00;97392.34;5073774;28;20300;-81
2023/11/01 07:21:06;;;;;;;1.87;1.23;;;;;;;8.52;100.00;97385.19;5073152;28;20229;-82
2023/11/01 07:23:33;;;;;;;3.20;1.60;;;;;;;8.54;100.00;97370.09;5077048;28;20206;-81
2023/11/01 07:26:00;;;;;;;2.67;1.30;;;;;;;8.56;100.00;97376.94;5074877;28;20218;-81
2023/11/01 07:28:26;;;;;;;2.50;1.17;;;;;;;8.58;100.00;97374.19;5075076;28;20252;-81
2023/11/01 07:30:53;;;;;;;2.97;1.00;;;;;;;8.60;100.00;97383.66;5075182;28;20233;-82
2023/11/01 07:33:21;;;;;;;1.90;1.30;;;;;;;8.65;100.00;97375.41;5075024;28;20214;-82
2023/11/01 07:35:47;;;;;;;1.60;1.30;;;;;;;8.69;100.00;97369.81;5074837;28;20602;-80
2023/11/01 07:38:14;;;;;;;4.10;1.53;;;;;;;8.77;100.00;97369.25;5075066;28;20214;-81
2023/11/01 07:40:40;;;;;;;2.43;1.57;;;;;;;8.84;100.00;97359.94;5074868;28;20214;-80
2023/11/01 07:43:07;;;;;;;1.80;1.40;;;;;;;8.89;100.00;97357.81;5074753;28;20634;-80
2023/11/01 07:45:33;;;;;;;3.60;1.70;;;;;;;8.98;100.00;97365.00;5074839;28;20208;-81
2023/11/01 07:48:00;;;;;;;1.67;1.40;;;;;;;9.05;100.00;97360.97;5075238;28;20240;-79
2023/11/01 07:50:28;;;;;;;1.30;1.20;;;;;;;9.10;100.00;97367.56;5074951;28;20211;-80
2023/11/01 07:52:54;;;;;;;1.40;1.30;;;;;;;9.21;100.00;97364.13;5073447;28;20297;-81
2023/11/01 07:55:21;;;;;;;1.63;1.40;;;;;;;9.27;100.00;97358.38;5074132;28;20222;-80
2023/11/01 07:57:47;;;;;;;3.27;1.53;;;;;;;9.34;100.00;97346.41;5074534;28;20280;-81
2023/11/01 08:00:15;;;;;;;1.43;1.33;;;;;;;9.40;100.00;97343.28;5073583;28;20205;-81
2023/11/01 08:02:41;;;;;;;1.87;1.30;;;;;;;9.43;100.00;97335.16;5073341;28;20238;-81
2023/11/01 08:05:08;;;;;;;1.93;1.30;;;;;;;9.54;100.00;97335.19;5073009;28;20210;-81
2023/11/01 08:07:36;;;;;;;3.80;1.80;;;;;;;9.55;100.00;97340.31;5057461;28;20228;-78
2023/11/01 08:10:03;;;;;;;1.80;1.70;;;;;;;9.61;100.00;97346.94;5052789;28;20211;-79
2023/11/01 08:12:30;;;;;;;1.73;1.43;;;;;;;9.64;100.00;97342.25;5053107;28;20228;-81
2023/11/01 08:14:57;;;;;;;2.30;1.40;;;;;;;9.69;100.00;97333.97;5053192;28;20215;-81
2023/11/01 08:17:24;;;;;;;1.53;1.20;;;;;;;9.79;100.00;97329.66;5052414;28;20558;-79
2023/11/01 08:19:50;;;;;;;1.13;0.90;;;;;;;9.83;100.00;97325.81;5053372;28;20240;-79
2023/11/01 08:22:17;;;;;;;2.20;1.17;;;;;;;9.88;100.00;97329.78;5053747;28;20320;-79
2023/11/01 08:24:44;;;;;;;2.50;1.40;;;;;;;9.96;100.00;97331.78;5054207;28;20589;-79
2023/11/01 08:27:11;;;;;;;1.67;1.13;;;;;;;10.04;100.00;97318.88;5061596;28;20225;-79
2023/11/01 08:29:41;;;;;;;1.37;1.10;;;;;;;10.11;100.00;97320.06;5061451;28;20207;-79
2023/11/01 08:32:08;;;;;;;2.13;1.20;;;;;;;10.17;100.00;97319.56;5072601;28;20266;-79
2023/11/01 08:34:35;;;;;;;2.33;1.40;;;;;;;10.27;100.00;97325.78;5057752;28;20204;-79
2023/11/01 08:37:01;;;;;;;1.43;1.20;;;;;;;10.33;100.00;97326.13;5052954;28;20207;-79
2023/11/01 08:39:28;;;;;;;3.73;1.40;;;;;;;10.39;100.00;97325.63;5052623;28;20812;-81
2023/11/01 08:41:56;;;;;;;1.93;1.40;;;;;;;10.48;100.00;97331.97;5056910;28;20225;-79
2023/11/01 08:44:22;;;;;;;1.53;1.20;;;;;;;10.53;100.00;97337.72;5072009;28;20209;-77
2023/11/01 08:46:49;;;;;;;1.73;1.20;;;;;;;10.63;100.00;97338.63;5072782;28;20686;-81
2023/11/01 08:49:15;;;;;;;2.23;1.43;;;;;;;10.69;100.00;97338.97;5072781;28;20199;-80
2023/11/01 08:51:42;;;;;;;1.37;1.20;;;;;;;10.79;100.00;97323.22;5073360;28;20228;-81
2023/11/01 08:54:09;;;;;;;3.30;1.50;;;;;;;10.87;100.00;97328.69;5060248;28;20765;-80
2023/11/01 08:56:36;;;;;;;1.23;1.03;;;;;;;10.97;100.00;97326.97;5033884;28;20210;-80
2023/11/01 08:59:04;;;;;;;1.53;1.20;;;;;;;11.06;100.00;97329.69;5031779;28;20540;-81
2023/11/01 09:01:31;;;;;;;1.27;1.00;;;;;;;11.16;100.00;97321.81;5041988;28;20765;-81
2023/11/01 09:03:58;;;;;;;3.00;1.37;;;;;;;11.25;100.00;97318.41;5040947;28;20207;-81
2023/11/01 09:06:25;;;;;;;1.87;1.00;;;;;;;11.32;100.00;97322.19;5041050;28;20212;-81
2023/11/01 09:08:51;;;;;;;1.90;1.00;;;;;;;11.39;100.00;97316.28;5041672;28;20228;-81
2023/11/01 09:11:23;;;;;;;1.53;1.00;;;;;;;11.46;100.00;97320.06;5041738;28;20224;-81
2023/11/01 09:13:49;;;;;;;1.70;1.00;;;;;;;11.49;100.00;97321.63;5042345;28;20213;-81
2023/11/01 09:16:18;;;;;;;2.03;1.13;;;;;;;11.59;100.00;97322.50;5041223;28;20223;-81
2023/11/01 09:18:44;;;;;;;2.40;1.10;;;;;;;11.65;100.00;97314.91;5041505;28;20223;-81
2023/11/01 09:21:11;;;;;;;2.40;1.00;;;;;;;11.72;100.00;97320.47;5041494;28;20231;-81
2023/11/01 09:23:37;;;;;;;1.53;1.17;;;;;;;11.81;100.00;97322.34;5041372;28;20218;-81
2023/11/01 09:26:06;;;;;;;3.47;0.97;;;;;;;11.98;100.00;97325.19;5041638;28;20213;-81
2023/11/01 09:28:33;;;;;;;2.97;1.00;;;;;;;12.11;100.00;97309.06;5042164;28;20267;-81
2023/11/01 09:30:59;;;;;;;1.10;0.80;;;;;;;12.32;100.00;97313.31;5042263;28;20333;-81
2023/11/01 09:33:27;;;;;;;2.07;0.90;;;;;;;12.49;100.00;97307.34;5043084;28;20216;-81
2023/11/01 09:35:54;;;;;;;1.23;0.87;;;;;;;12.63;100.00;97298.97;5041735;28;20211;-81
2023/11/01 09:38:20;;;;;;;0.80;0.80;;;;;;;12.76;100.00;97298.69;5042812;28;20213;-81
2023/11/01 09:40:47;;;;;;;3.00;0.70;;;;;;;12.83;100.00;97297.19;5042462;28;20208;-81
2023/11/01 09:43:19;;;;;;;1.30;0.83;;;;;;;12.99;100.00;97297.47;5042510;28;20208;-81
2023/11/01 09:45:46;;;;;;;2.53;1.20;;;;;;;13.08;100.00;97288.69;5044722;28;20366;-81
2023/11/01 09:48:13;;;;;;;1.73;0.70;;;;;;;13.25;100.00;97285.28;5045935;28;20225;-81
2023/11/01 09:50:42;;;;;;;1.80;1.07;;;;;;;13.33;100.00;97288.06;5046056;28;20216;-81
2023/11/01 09:53:09;;;;;;;0.93;0.70;;;;;;;13.37;100.00;97278.81;5045977;28;20208;-81
2023/11/01 09:55:35;;;;;;;2.00;0.93;;;;;;;13.44;100.00;97285.25;5046537;28;20211;-81
2023/11/01 09:58:03;;;;;;;3.30;0.67;;;;;;;13.48;99.96;97278.66;5046523;28;20209;-81
2023/11/01 10:00:31;;;;;;;1.90;0.80;;;;;;;13.49;98.84;97267.06;5046990;28;20213;-81
2023/11/01 10:02:58;;;;;;;0.57;0.53;;;;;;;13.51;97.34;97267.75;5046940;28;20277;-81
2023/11/01 10:05:24;;;;;;;2.47;0.80;;;;;;;13.66;95.48;97263.66;5046434;28;20212;-81
2023/11/01 10:07:52;;;;;;;0.90;0.70;;;;;;;13.74;95.13;97255.81;5037575;28;20778;-80
2023/11/01 10:10:19;;;;;;;1.03;0.63;;;;;;;13.85;94.21;97252.94;5035818;28;20209;-81
2023/11/01 10:12:45;;;;;;;1.90;0.80;;;;;;;13.90;93.29;97250.69;5035592;28;20232;-81
2023/11/01 10:15:19;;;;;;;0.60;0.60;;;;;;;14.00;92.21;97241.66;5035699;28;20710;-81
2023/11/01 10:17:45;;;;;;;0.87;0.57;;;;;;;14.13;92.49;97239.47;5035592;28;20201;-81
2023/11/01 10:20:28;;;;;;;0.67;0.67;;;;;;;14.19;92.79;97240.75;5035436;28;20248;-80
2023/11/01 10:22:56;;;;;;;2.20;0.63;;;;;;;14.21;89.51;97217.53;5035516;28;20285;-81
2023/11/01 10:25:23;;;;;;;1.80;0.80;;;;;;;14.25;87.14;97209.09;5039376;28;20237;-81
2023/11/01 10:27:50;;;;;;;1.40;0.70;;;;;;;14.25;85.64;97201.13;5037070;28;20682;-80
2023/11/01 10:30:17;;;;;;;0.77;0.50;;;;;;;14.31;85.79;97197.03;5039916;28;20217;-81
2023/11/01 10:32:54;;;;;;;0.50;0.50;;;;;;;14.31;86.43;97202.34;5037669;28;20238;-81
2023/11/01 10:35:20;;;;;;;2.03;1.00;;;;;;;14.35;85.82;97196.56;5043036;28;20305;-81
2023/11/01 10:37:47;;;;;;;0.77;0.50;;;;;;;14.36;85.77;97200.91;5046632;28;20232;-81
2023/11/01 10:40:15;;;;;;;0.60;0.60;;;;;;;14.41;85.00;97195.97;5046109;28;20257;-81
2023/11/01 10:42:43;;;;;;;1.27;0.60;;;;;;;14.48;86.08;97199.69;5046257;28;20228;-81
2023/11/01 10:45:11;;;;;;;1.27;0.50;;;;;;;14.55;85.03;97189.28;5047454;28;20210;-81
2023/11/01 10:47:38;;;;;;;1.70;0.60;;;;;;;14.57;83.95;97181.97;5046712;28;20560;-81
2023/11/01 10:50:06;;;;;;;0.80;0.60;;;;;;;14.64;84.58;97178.56;5046816;28;20228;-81
2023/11/01 10:52:35;;;;;;;1.67;0.70;;;;;;;14.72;82.68;97164.50;5045847;28;20230;-81
2023/11/01 10:55:03;;;;;;;1.17;0.57;;;;;;;14.73;79.80;97153.69;5046025;28;20577;-82
2023/11/01 10:57:33;;;;;;;1.43;0.60;;;;;;;14.75;79.38;97153.53;5047370;28;20247;-81
2023/11/01 11:00:06;;;;;;;1.17;0.60;;;;;;;14.78;78.34;97142.59;5048890;28;20233;-81
2023/11/01 11:02:38;;;;;;;2.23;0.67;;;;;;;14.82;78.23;97142.13;5047700;28;20245;-81
2023/11/01 11:05:10;;;;;;;0.33;0.30;;;;;;;14.82;77.45;97134.16;5048599;28;20220;-81
2023/11/01 11:07:46;;;;;;;0.70;0.50;;;;;;;14.92;76.12;97126.88;5048198;28;20216;-81
2023/11/01 11:10:23;;;;;;;0.90;0.57;;;;;;;14.93;76.72;97125.91;5044099;28;20577;-81
2023/11/01 11:13:25;;;;;;;1.33;0.60;;;;;;;14.95;77.46;97118.59;5041266;28;20284;-80
2023/11/01 11:15:56;;;;;;;1.07;0.50;;;;;;;14.93;77.65;97115.28;5043228;28;20668;-83
2023/11/01 11:18:24;;;;;;;0.47;0.47;;;;;;;14.90;77.79;97115.56;5045754;28;20206;-82
2023/11/01 11:20:50;;;;;;;1.77;0.50;;;;;;;14.99;74.45;97100.50;5045895;28;20246;-82
2023/11/01 11:23:17;;;;;;;0.50;0.50;;;;;;;14.94;76.56;97108.09;5046145;28;20275;-82
2023/11/01 11:25:45;;;;;;;2.27;0.70;;;;;;;14.93;76.12;97109.09;5048262;28;20222;-81
2023/11/01 11:28:12;;;;;;;0.53;0.50;;;;;;;14.96;75.47;97104.31;5049594;28;20569;-81
2023/11/01 11:31:00;;;;;;;1.53;0.60;;;;;;;14.98;75.80;97107.63;5048524;28;20212;-80